createdAt,value
2023-04-27T00:00:55.138Z,28.15
2023-04-27T00:01:55.232Z,28.12
2023-04-27T00:02:55.342Z,28.08
2023-04-27T00:03:55.291Z,28.14
2023-04-27T00:04:55.417Z,28.12
2023-04-27T00:05:55.554Z,28.07
2023-04-27T00:06:55.157Z,28.15
2023-04-27T00:07:55.191Z,28.14
2023-04-27T00:08:55.175Z,28.12
2023-04-27T00:09:55.277Z,28.14
2023-04-27T00:10:55.186Z,28.17
2023-04-27T00:11:55.215Z,28.17
2023-04-27T00:12:55.219Z,28.14
2023-04-27T00:13:55.257Z,28.21
2023-04-27T00:14:55.265Z,28.14
2023-04-27T00:15:55.293Z,28.14
2023-04-27T00:16:55.249Z,28.09
2023-04-27T00:17:55.293Z,28.17
2023-04-27T00:18:55.290Z,28.21
2023-04-27T00:19:55.394Z,28.15
2023-04-27T00:20:55.286Z,28.18
2023-04-27T00:21:55.322Z,28.19
2023-04-27T00:22:55.295Z,28.17
2023-04-27T00:23:55.317Z,28.12
2023-04-27T00:24:55.316Z,28.17
2023-04-27T00:25:55.381Z,28.14
2023-04-27T00:26:55.360Z,28.14
2023-04-27T00:27:55.391Z,28.14
2023-04-27T00:28:55.371Z,28.18
2023-04-27T00:29:55.369Z,28.12
2023-04-27T00:30:55.385Z,28.14
2023-04-27T00:31:55.509Z,28.18
2023-04-27T00:32:55.439Z,28.19
2023-04-27T00:33:55.406Z,28.23
2023-04-27T00:34:55.439Z,28.21
2023-04-27T00:35:55.442Z,28.13
2023-04-27T00:36:55.448Z,28.18
2023-04-27T00:37:55.916Z,28.19
2023-04-27T00:38:55.455Z,28.19
2023-04-27T00:39:55.481Z,28.13
2023-04-27T00:40:55.479Z,28.21
2023-04-27T00:41:55.484Z,28.19
2023-04-27T00:42:55.553Z,28.15
2023-04-27T00:43:55.521Z,28.17
2023-04-27T00:44:55.934Z,28.17
2023-04-27T00:45:55.576Z,28.22
2023-04-27T00:46:55.548Z,28.21
2023-04-27T00:47:55.603Z,28.21
2023-04-27T00:48:55.590Z,28.19
2023-04-27T00:49:55.596Z,28.19
2023-04-27T00:50:55.610Z,28.20
2023-04-27T00:51:55.588Z,28.17
2023-04-27T00:52:55.637Z,28.22
2023-04-27T00:53:55.709Z,28.15
2023-04-27T00:54:55.636Z,28.24
2023-04-27T00:55:55.647Z,28.24
2023-04-27T00:56:55.644Z,28.19
2023-04-27T00:57:55.653Z,28.18
2023-04-27T00:58:55.648Z,28.19
2023-04-27T00:59:55.715Z,28.12
2023-04-27T01:00:55.714Z,28.14
2023-04-27T01:01:55.685Z,28.21
2023-04-27T01:02:55.832Z,28.24
2023-04-27T01:03:55.942Z,28.21
2023-04-27T01:04:55.806Z,28.19
2023-04-27T01:05:55.763Z,28.22
2023-04-27T01:06:55.731Z,28.17
2023-04-27T01:07:55.761Z,28.23
2023-04-27T01:08:55.782Z,28.19
2023-04-27T01:09:55.807Z,28.19
2023-04-27T01:10:55.833Z,28.19
2023-04-27T01:11:56.425Z,28.19
2023-04-27T01:12:55.812Z,28.15
2023-04-27T01:13:55.828Z,28.22
2023-04-27T01:14:55.831Z,28.19
2023-04-27T01:15:55.871Z,28.24
2023-04-27T01:16:55.916Z,28.27
2023-04-27T01:17:55.894Z,28.22
2023-04-27T01:18:55.866Z,28.24
2023-04-27T01:19:55.954Z,28.19
2023-04-27T01:20:55.893Z,28.25
2023-04-27T01:21:55.933Z,28.24
2023-04-27T01:22:55.908Z,28.25
2023-04-27T01:23:55.905Z,28.25
2023-04-27T01:24:55.933Z,28.24
2023-04-27T01:25:55.921Z,28.25
2023-04-27T01:26:55.949Z,28.22
2023-04-27T01:27:55.968Z,28.20
2023-04-27T01:28:56.040Z,28.28
2023-04-27T01:29:55.985Z,28.28
2023-04-27T01:30:56.004Z,28.25
2023-04-27T01:31:56.022Z,28.22
2023-04-27T01:32:56.476Z,28.24
2023-04-27T01:33:56.022Z,28.25
2023-04-27T01:34:56.021Z,28.22
2023-04-27T01:35:56.039Z,28.32
2023-04-27T01:36:56.038Z,28.26
2023-04-27T01:37:56.082Z,28.28
2023-04-27T01:38:56.164Z,28.28
2023-04-27T01:39:56.115Z,28.22
2023-04-27T01:40:56.099Z,28.30
2023-04-27T01:41:57.853Z,28.28
2023-04-27T01:42:56.110Z,28.28
2023-04-27T01:43:56.129Z,28.26
2023-04-27T01:44:56.173Z,28.24
2023-04-27T01:45:56.165Z,28.25
2023-04-27T01:46:56.174Z,28.25
2023-04-27T01:47:56.234Z,28.25
2023-04-27T01:48:56.193Z,28.26
2023-04-27T01:49:56.240Z,28.24
2023-04-27T01:50:56.204Z,28.25
2023-04-27T01:51:56.205Z,28.20
2023-04-27T01:52:56.243Z,28.22
2023-04-27T01:53:56.228Z,28.25
2023-04-27T01:54:56.254Z,28.28
2023-04-27T01:55:56.259Z,28.25
2023-04-27T01:56:56.276Z,28.24
2023-04-27T01:57:56.286Z,28.29
2023-04-27T01:58:56.281Z,28.26
2023-04-27T01:59:56.294Z,28.26
2023-04-27T02:00:56.313Z,28.29
2023-04-27T02:01:56.411Z,28.23
2023-04-27T02:02:56.502Z,28.25
2023-04-27T02:03:56.635Z,28.31
2023-04-27T02:04:56.496Z,28.29
2023-04-27T02:05:56.409Z,28.30
2023-04-27T02:06:56.376Z,28.29
2023-04-27T02:07:56.412Z,28.28
2023-04-27T02:08:56.426Z,28.28
2023-04-27T02:09:56.431Z,28.28
2023-04-27T02:10:56.441Z,28.32
2023-04-27T02:11:56.464Z,28.29
2023-04-27T02:12:56.448Z,28.32
2023-04-27T02:13:56.487Z,28.28
2023-04-27T02:14:56.504Z,28.31
2023-04-27T02:15:56.597Z,28.26
2023-04-27T02:16:56.507Z,28.26
2023-04-27T02:17:56.571Z,28.25
2023-04-27T02:18:56.546Z,28.31
2023-04-27T02:19:56.555Z,28.34
2023-04-27T02:20:56.594Z,28.26
2023-04-27T02:21:56.567Z,28.28
2023-04-27T02:22:56.668Z,28.28
2023-04-27T02:23:56.604Z,28.28
2023-04-27T02:24:56.639Z,28.26
2023-04-27T02:25:56.601Z,28.31
2023-04-27T02:26:56.605Z,28.23
2023-04-27T02:27:56.644Z,28.31
2023-04-27T02:28:56.647Z,28.28
2023-04-27T02:29:56.660Z,28.28
2023-04-27T02:30:56.688Z,28.29
2023-04-27T02:31:56.727Z,28.26
2023-04-27T02:32:56.700Z,28.26
2023-04-27T02:33:56.698Z,28.25
2023-04-27T02:34:56.748Z,28.29
2023-04-27T02:35:56.751Z,28.26
2023-04-27T02:36:56.739Z,28.31
2023-04-27T02:37:56.752Z,28.32
2023-04-27T02:38:56.768Z,28.28
2023-04-27T02:39:56.778Z,28.26
2023-04-27T02:40:56.791Z,28.23
2023-04-27T02:41:56.793Z,28.29
2023-04-27T02:42:56.804Z,28.28
2023-04-27T02:43:56.812Z,28.29
2023-04-27T02:44:56.825Z,28.33
2023-04-27T02:45:56.835Z,28.31
2023-04-27T02:46:56.877Z,28.33
2023-04-27T02:47:56.883Z,28.32
2023-04-27T02:48:56.905Z,28.28
2023-04-27T02:49:56.898Z,28.29
2023-04-27T02:50:56.906Z,28.31
2023-04-27T02:51:56.916Z,28.36
2023-04-27T02:52:56.910Z,28.38
2023-04-27T02:53:56.912Z,28.27
2023-04-27T02:54:56.939Z,28.35
2023-04-27T02:55:56.957Z,28.33
2023-04-27T02:56:56.958Z,28.33
2023-04-27T02:57:56.968Z,28.32
2023-04-27T02:58:56.978Z,28.36
2023-04-27T02:59:56.987Z,28.33
2023-04-27T03:00:57.096Z,28.33
2023-04-27T03:01:57.004Z,28.33
2023-04-27T03:02:57.106Z,28.33
2023-04-27T03:03:57.156Z,28.36
2023-04-27T03:04:57.510Z,28.38
2023-04-27T03:05:57.121Z,28.31
2023-04-27T03:06:57.117Z,28.33
2023-04-27T03:07:57.077Z,28.38
2023-04-27T03:08:57.104Z,28.36
2023-04-27T03:09:57.090Z,28.39
2023-04-27T03:10:57.081Z,28.36
2023-04-27T03:11:57.112Z,28.36
2023-04-27T03:12:57.113Z,28.35
2023-04-27T03:13:57.117Z,28.35
2023-04-27T03:14:57.148Z,28.38
2023-04-27T03:15:57.200Z,28.36
2023-04-27T03:16:57.173Z,28.37
2023-04-27T03:17:57.235Z,28.37
2023-04-27T03:18:57.218Z,28.35
2023-04-27T03:19:57.194Z,28.30
2023-04-27T03:20:57.191Z,28.33
2023-04-27T03:21:57.242Z,28.37
2023-04-27T03:22:57.234Z,28.35
2023-04-27T03:23:57.254Z,28.39
2023-04-27T03:24:57.261Z,28.36
2023-04-27T03:25:57.250Z,28.35
2023-04-27T03:26:57.300Z,28.36
2023-04-27T03:27:57.268Z,28.37
2023-04-27T03:28:57.288Z,28.38
2023-04-27T03:29:57.324Z,28.33
2023-04-27T03:30:57.361Z,28.39
2023-04-27T03:31:57.374Z,28.38
2023-04-27T03:32:57.387Z,28.36
2023-04-27T03:33:57.350Z,28.37
2023-04-27T03:34:57.380Z,28.39
2023-04-27T03:35:57.355Z,28.36
2023-04-27T03:36:57.392Z,28.42
2023-04-27T03:37:57.414Z,28.36
2023-04-27T03:38:57.419Z,28.42
2023-04-27T03:39:57.446Z,28.39
2023-04-27T03:40:57.433Z,28.35
2023-04-27T03:41:57.463Z,28.41
2023-04-27T03:42:59.103Z,28.37
2023-04-27T03:43:57.497Z,28.39
2023-04-27T03:44:57.497Z,28.37
2023-04-27T03:45:57.672Z,28.40
2023-04-27T03:46:57.536Z,28.42
2023-04-27T03:47:57.574Z,28.40
2023-04-27T03:48:57.567Z,28.40
2023-04-27T03:49:57.555Z,28.39
2023-04-27T03:50:57.579Z,28.37
2023-04-27T03:51:57.636Z,28.39
2023-04-27T03:52:57.612Z,28.40
2023-04-27T03:53:57.688Z,28.42
2023-04-27T03:54:57.631Z,28.40
2023-04-27T03:55:57.657Z,28.42
2023-04-27T03:56:57.665Z,28.42
2023-04-27T03:57:57.662Z,28.40
2023-04-27T03:58:57.701Z,28.48
2023-04-27T03:59:57.721Z,28.39
2023-04-27T04:00:57.697Z,28.39
2023-04-27T04:01:59.546Z,28.37
2023-04-27T04:02:57.849Z,28.39
2023-04-27T04:03:58.020Z,28.40
2023-04-27T04:04:57.785Z,28.37
2023-04-27T04:05:57.726Z,28.43
2023-04-27T04:06:57.666Z,28.45
2023-04-27T04:07:57.679Z,28.45
2023-04-27T04:08:57.657Z,28.46
2023-04-27T04:09:57.649Z,28.46
2023-04-27T04:10:57.645Z,28.42
2023-04-27T04:11:57.640Z,28.40
2023-04-27T04:12:57.625Z,28.40
2023-04-27T04:13:57.630Z,28.49
2023-04-27T04:14:57.671Z,28.45
2023-04-27T04:15:57.655Z,28.49
2023-04-27T04:16:57.589Z,28.42
2023-04-27T04:17:57.665Z,28.45
2023-04-27T04:18:57.608Z,28.47
2023-04-27T04:19:57.626Z,28.46
2023-04-27T04:20:57.587Z,28.47
2023-04-27T04:21:57.561Z,28.45
2023-04-27T04:22:57.570Z,28.48
2023-04-27T04:23:57.545Z,28.52
2023-04-27T04:24:57.550Z,28.45
2023-04-27T04:25:57.543Z,28.46
2023-04-27T04:26:57.625Z,28.45
2023-04-27T04:27:57.515Z,28.49
2023-04-27T04:28:57.514Z,28.50
2023-04-27T04:29:57.530Z,28.49
2023-04-27T04:30:57.523Z,28.49
2023-04-27T04:31:57.489Z,28.49
2023-04-27T04:32:57.530Z,28.49
2023-04-27T04:33:57.480Z,28.47
2023-04-27T04:34:57.566Z,28.50
2023-04-27T04:35:57.466Z,28.49
2023-04-27T04:36:57.482Z,28.49
2023-04-27T04:37:57.465Z,28.49
2023-04-27T04:38:57.486Z,28.45
2023-04-27T04:39:57.429Z,28.53
2023-04-27T04:40:57.440Z,28.46
2023-04-27T04:41:57.410Z,28.49
2023-04-27T04:42:57.415Z,28.49
2023-04-27T04:43:57.416Z,28.52
2023-04-27T04:44:57.388Z,28.47
2023-04-27T04:45:57.407Z,28.50
2023-04-27T04:46:57.419Z,28.53
2023-04-27T04:47:57.414Z,28.48
2023-04-27T04:48:57.405Z,28.53
2023-04-27T04:49:57.383Z,28.49
2023-04-27T04:50:57.430Z,28.52
2023-04-27T04:51:57.341Z,28.53
2023-04-27T04:52:57.346Z,28.55
2023-04-27T04:53:57.370Z,28.47
2023-04-27T04:54:57.331Z,28.53
2023-04-27T04:55:57.322Z,28.53
2023-04-27T04:56:57.325Z,28.49
2023-04-27T04:57:57.321Z,28.49
2023-04-27T04:58:57.315Z,28.48
2023-04-27T04:59:57.294Z,28.52
2023-04-27T05:00:57.288Z,28.50
2023-04-27T05:01:57.372Z,28.52
2023-04-27T05:02:57.436Z,28.50
2023-04-27T05:03:57.458Z,28.50
2023-04-27T05:04:57.460Z,28.55
2023-04-27T05:05:57.293Z,28.52
2023-04-27T05:06:57.292Z,28.52
2023-04-27T05:07:57.250Z,28.53
2023-04-27T05:08:57.225Z,28.52
2023-04-27T05:09:57.229Z,28.52
2023-04-27T05:10:57.201Z,28.49
2023-04-27T05:11:57.204Z,28.50
2023-04-27T05:12:57.208Z,28.53
2023-04-27T05:13:57.228Z,28.53
2023-04-27T05:14:57.172Z,28.56
2023-04-27T05:15:57.209Z,28.50
2023-04-27T05:16:57.194Z,28.52
2023-04-27T05:17:57.304Z,28.59
2023-04-27T05:18:57.153Z,28.55
2023-04-27T05:19:57.143Z,28.53
2023-04-27T05:20:57.173Z,28.59
2023-04-27T05:21:57.128Z,28.53
2023-04-27T05:22:57.145Z,28.55
2023-04-27T05:23:57.121Z,28.58
2023-04-27T05:24:57.131Z,28.59
2023-04-27T05:25:57.224Z,28.62
2023-04-27T05:26:57.111Z,28.58
2023-04-27T05:27:57.108Z,28.56
2023-04-27T05:28:57.086Z,28.54
2023-04-27T05:29:57.113Z,28.50
2023-04-27T05:30:57.113Z,28.49
2023-04-27T05:31:57.119Z,28.39
2023-04-27T05:32:57.145Z,28.25
2023-04-27T05:33:57.090Z,28.26
2023-04-27T05:34:57.047Z,28.31
2023-04-27T05:35:57.194Z,28.85
2023-04-27T05:36:57.076Z,29.05
2023-04-27T05:37:57.100Z,28.90
2023-04-27T05:38:57.066Z,29.42
2023-04-27T05:39:57.055Z,29.48
2023-04-27T05:40:57.081Z,30.75
2023-04-27T05:41:57.130Z,30.26
2023-04-27T05:42:57.536Z,30.58
2023-04-27T05:43:57.207Z,31.22
2023-04-27T05:44:57.215Z,31.06
2023-04-27T05:45:57.339Z,31.38
2023-04-27T05:46:57.358Z,31.59
2023-04-27T05:47:57.452Z,31.66
2023-04-27T05:48:57.424Z,32.25
2023-04-27T05:49:58.096Z,31.63
2023-04-27T05:50:57.508Z,31.88
2023-04-27T05:51:57.507Z,32.13
2023-04-27T05:52:58.040Z,32.23
2023-04-27T05:53:57.572Z,32.40
2023-04-27T05:54:57.688Z,32.62
2023-04-27T05:55:57.624Z,32.60
2023-04-27T05:56:57.601Z,32.93
2023-04-27T05:58:07.700Z,32.94
2023-04-27T05:59:01.168Z,33.51
2023-04-27T05:59:57.581Z,33.04
2023-04-27T06:00:57.594Z,33.24
2023-04-27T06:01:57.656Z,33.33
2023-04-27T06:02:57.704Z,33.40
2023-04-27T06:03:57.703Z,33.40
2023-04-27T06:04:57.670Z,33.36
2023-04-27T06:05:59.089Z,33.52
2023-04-27T06:06:57.556Z,33.40
2023-04-27T06:07:57.538Z,33.14
2023-04-27T06:08:57.527Z,33.24
2023-04-27T06:09:57.523Z,33.37
2023-04-27T06:10:57.636Z,33.37
2023-04-27T06:11:57.511Z,33.25
2023-04-27T06:12:57.532Z,33.41
2023-04-27T06:13:57.516Z,33.69
2023-04-27T06:14:57.505Z,33.43
2023-04-27T06:15:57.501Z,33.49
2023-04-27T06:16:57.534Z,33.65
2023-04-27T06:17:57.633Z,33.84
2023-04-27T06:18:57.693Z,33.71
2023-04-27T06:19:57.709Z,33.61
2023-04-27T06:20:57.762Z,33.53
2023-04-27T06:21:57.849Z,33.67
2023-04-27T06:22:57.931Z,33.87
2023-04-27T06:23:57.931Z,33.85
2023-04-27T06:24:58.032Z,33.99
2023-04-27T06:25:58.080Z,34.02
2023-04-27T06:26:58.158Z,34.03
2023-04-27T06:27:58.155Z,33.52
2023-04-27T06:28:58.223Z,33.84
2023-04-27T06:29:59.030Z,33.77
2023-04-27T06:30:58.455Z,33.78
2023-04-27T06:31:58.429Z,33.83
2023-04-27T06:32:58.487Z,33.58
2023-04-27T06:33:58.471Z,33.57
2023-04-27T06:34:58.552Z,33.93
2023-04-27T06:35:58.593Z,34.01
2023-04-27T06:36:58.620Z,33.92
2023-04-27T06:37:58.821Z,33.83
2023-04-27T06:38:58.803Z,33.54
2023-04-27T06:39:58.777Z,33.63
2023-04-27T06:40:58.857Z,33.49
2023-04-27T06:41:58.887Z,33.30
2023-04-27T06:42:59.092Z,33.10
2023-04-27T06:43:59.301Z,33.07
2023-04-27T06:44:59.040Z,33.07
2023-04-27T06:45:59.126Z,33.03
2023-04-27T06:46:59.196Z,32.91
2023-04-27T06:47:59.304Z,32.88
2023-04-27T06:48:59.306Z,32.94
2023-04-27T06:49:59.324Z,32.84
2023-04-27T06:50:59.410Z,32.79
2023-04-27T06:51:59.432Z,32.79
2023-04-27T06:52:59.471Z,32.72
2023-04-27T06:53:59.518Z,32.70
2023-04-27T06:54:59.637Z,32.71
2023-04-27T06:55:59.665Z,32.61
2023-04-27T06:56:59.738Z,32.59
2023-04-27T06:57:59.729Z,32.55
2023-04-27T06:58:59.776Z,32.58
2023-04-27T06:59:59.765Z,32.49
2023-04-27T07:00:59.833Z,32.55
2023-04-27T07:02:00.030Z,32.46
2023-04-27T07:02:59.941Z,32.45
2023-04-27T07:03:59.953Z,32.39
2023-04-27T07:04:59.991Z,32.36
2023-04-27T07:05:59.928Z,32.33
2023-04-27T07:06:59.977Z,32.30
2023-04-27T07:08:01.568Z,32.35
2023-04-27T07:08:59.979Z,32.35
2023-04-27T07:09:59.976Z,32.25
2023-04-27T07:10:59.977Z,32.20
2023-04-27T07:11:59.962Z,32.19
2023-04-27T07:12:59.968Z,32.12
2023-04-27T07:13:59.979Z,32.15
2023-04-27T07:14:59.942Z,32.08
2023-04-27T07:15:59.954Z,32.11
2023-04-27T07:16:59.941Z,32.10
2023-04-27T07:17:59.970Z,32.04
2023-04-27T07:18:59.952Z,32.03
2023-04-27T07:19:59.994Z,32.09
2023-04-27T07:20:59.905Z,31.99
2023-04-27T07:21:59.922Z,31.97
2023-04-27T07:22:59.900Z,31.97
2023-04-27T07:23:59.895Z,31.93
2023-04-27T07:24:59.862Z,31.96
2023-04-27T07:26:00.129Z,31.94
2023-04-27T07:26:59.869Z,31.93
2023-04-27T07:27:59.837Z,31.91
2023-04-27T07:28:59.858Z,31.90
2023-04-27T07:29:59.868Z,31.91
2023-04-27T07:30:59.846Z,32.15
2023-04-27T07:31:59.830Z,32.53
2023-04-27T07:32:59.845Z,32.71
2023-04-27T07:33:59.847Z,32.75
2023-04-27T07:34:59.816Z,32.72
2023-04-27T07:36:00.154Z,32.54
2023-04-27T07:36:59.773Z,32.50
2023-04-27T07:37:59.820Z,32.54
2023-04-27T07:39:00.097Z,32.53
2023-04-27T07:39:59.833Z,32.48
2023-04-27T07:41:00.096Z,32.46
2023-04-27T07:41:59.751Z,32.42
2023-04-27T07:42:59.780Z,32.40
2023-04-27T07:43:59.731Z,32.34
2023-04-27T07:44:59.752Z,32.33
2023-04-27T07:46:00.229Z,32.28
2023-04-27T07:46:59.717Z,32.25
2023-04-27T07:47:59.768Z,32.24
2023-04-27T07:49:00.095Z,32.24
2023-04-27T07:49:59.825Z,32.28
2023-04-27T07:51:00.073Z,32.25
2023-04-27T07:51:59.910Z,32.22
2023-04-27T07:52:59.949Z,32.12
2023-04-27T07:54:00.027Z,32.19
2023-04-27T07:55:00.057Z,32.11
2023-04-27T07:56:00.584Z,32.14
2023-04-27T07:57:00.117Z,32.08
2023-04-27T07:58:00.225Z,32.09
2023-04-27T07:59:00.608Z,32.05
2023-04-27T08:00:00.275Z,32.08
2023-04-27T08:01:00.302Z,32.03
2023-04-27T08:02:17.909Z,32.00
2023-04-27T08:03:01.435Z,32.02
2023-04-27T08:04:00.772Z,32.03
2023-04-27T08:05:00.488Z,32.03
2023-04-27T08:06:00.659Z,32.01
2023-04-27T08:07:00.619Z,31.97
2023-04-27T08:08:00.566Z,31.92
2023-04-27T08:09:00.236Z,32.01
2023-04-27T08:10:00.247Z,31.96
2023-04-27T08:11:00.361Z,31.99
2023-04-27T08:12:00.238Z,31.96
2023-04-27T08:13:00.322Z,31.97
2023-04-27T08:14:00.342Z,31.94
2023-04-27T08:15:00.424Z,31.96
2023-04-27T08:16:00.437Z,31.94
2023-04-27T08:17:00.518Z,31.94
2023-04-27T08:18:00.623Z,31.92
2023-04-27T08:19:00.892Z,31.90
2023-04-27T08:20:00.640Z,31.94
2023-04-27T08:21:00.702Z,31.90
2023-04-27T08:22:00.736Z,31.90
2023-04-27T08:23:00.785Z,31.93
2023-04-27T08:24:01.110Z,31.87
2023-04-27T08:25:00.881Z,32.33
2023-04-27T08:26:00.958Z,32.27
2023-04-27T08:27:01.047Z,32.59
2023-04-27T08:28:01.040Z,32.33
2023-04-27T08:29:15.491Z,32.34
2023-04-27T08:30:02.071Z,32.36
2023-04-27T08:31:01.152Z,32.34
2023-04-27T08:32:01.064Z,32.29
2023-04-27T08:33:01.111Z,32.30
2023-04-27T08:34:01.052Z,32.29
2023-04-27T08:35:01.133Z,32.28
2023-04-27T08:36:01.093Z,32.22
2023-04-27T08:37:01.056Z,32.21
2023-04-27T08:38:01.012Z,32.19
2023-04-27T08:39:01.108Z,32.16
2023-04-27T08:40:01.157Z,32.16
2023-04-27T08:41:14.264Z,32.15
2023-04-27T08:42:02.192Z,32.09
2023-04-27T08:43:01.310Z,32.15
2023-04-27T08:44:01.187Z,32.22
2023-04-27T08:45:01.175Z,32.73
2023-04-27T08:46:01.290Z,33.51
2023-04-27T08:47:01.145Z,34.03
2023-04-27T08:48:01.187Z,34.98
2023-04-27T08:49:01.179Z,35.09
2023-04-27T08:50:01.154Z,35.01
2023-04-27T08:51:01.165Z,35.21
2023-04-27T08:52:01.176Z,35.22
2023-04-27T08:53:01.185Z,35.79
2023-04-27T08:54:01.209Z,35.84
2023-04-27T08:55:01.207Z,35.85
2023-04-27T08:56:01.210Z,36.08
2023-04-27T08:57:01.194Z,36.21
2023-04-27T08:58:01.205Z,36.49
2023-04-27T08:59:01.204Z,36.53
2023-04-27T09:00:01.194Z,36.86
2023-04-27T09:01:01.202Z,36.90
2023-04-27T09:02:01.246Z,37.11
2023-04-27T09:03:01.343Z,37.61
2023-04-27T09:04:01.530Z,37.99
2023-04-27T09:05:01.472Z,37.78
2023-04-27T09:06:05.031Z,37.52
2023-04-27T09:07:01.374Z,37.43
2023-04-27T09:08:01.406Z,37.66
2023-04-27T09:09:01.363Z,37.74
2023-04-27T09:10:01.371Z,37.90
2023-04-27T09:11:01.416Z,37.98
2023-04-27T09:12:01.348Z,37.97
2023-04-27T09:13:01.338Z,37.96
2023-04-27T09:14:01.330Z,38.09
2023-04-27T09:15:01.332Z,38.15
2023-04-27T09:16:01.418Z,38.15
2023-04-27T09:17:01.341Z,38.14
2023-04-27T09:18:01.340Z,38.09
2023-04-27T09:19:01.353Z,37.92
2023-04-27T09:20:01.289Z,38.13
2023-04-27T09:21:01.293Z,38.29
2023-04-27T09:22:01.288Z,38.25
2023-04-27T09:23:01.276Z,38.34
2023-04-27T09:24:01.280Z,38.91
2023-04-27T09:25:01.302Z,38.62
2023-04-27T09:26:01.243Z,38.66
2023-04-27T09:27:01.316Z,39.09
2023-04-27T09:28:01.278Z,38.96
2023-04-27T09:29:01.229Z,39.53
2023-04-27T09:30:01.286Z,39.07
2023-04-27T09:31:01.208Z,38.95
2023-04-27T09:32:01.325Z,39.07
2023-04-27T09:33:01.264Z,39.31
2023-04-27T09:34:01.210Z,39.16
2023-04-27T09:35:01.182Z,39.10
2023-04-27T09:36:01.234Z,39.32
2023-04-27T09:37:01.235Z,37.51
2023-04-27T09:38:02.206Z,35.93
2023-04-27T09:39:01.178Z,35.73
2023-04-27T09:40:01.157Z,33.64
2023-04-27T09:41:01.153Z,33.34
2023-04-27T09:42:01.160Z,32.66
2023-04-27T09:43:01.203Z,32.15
2023-04-27T09:44:01.625Z,31.84
2023-04-27T09:45:01.145Z,31.10
2023-04-27T09:46:01.217Z,31.24
2023-04-27T09:47:01.248Z,32.11
2023-04-27T09:48:01.215Z,31.68
2023-04-27T09:49:01.139Z,31.57
2023-04-27T09:50:01.475Z,31.20
2023-04-27T09:51:01.103Z,31.27
2023-04-27T09:52:01.126Z,31.38
2023-04-27T09:53:01.076Z,31.30
2023-04-27T09:54:01.055Z,30.73
2023-04-27T09:55:01.062Z,30.60
2023-04-27T09:56:01.047Z,30.41
2023-04-27T09:57:01.034Z,30.46
2023-04-27T09:58:01.045Z,30.89
2023-04-27T09:59:01.080Z,30.99
2023-04-27T10:00:01.044Z,31.11
2023-04-27T10:01:01.144Z,31.21
2023-04-27T10:02:07.223Z,31.36
2023-04-27T10:03:02.166Z,31.56
2023-04-27T10:04:01.305Z,31.67
2023-04-27T10:05:01.185Z,31.86
2023-04-27T10:06:01.089Z,31.81
2023-04-27T10:07:01.035Z,31.82
2023-04-27T10:08:01.060Z,31.96
2023-04-27T10:09:01.055Z,31.74
2023-04-27T10:10:01.086Z,31.82
2023-04-27T10:11:01.057Z,31.96
2023-04-27T10:12:01.124Z,31.77
2023-04-27T10:13:01.012Z,32.21
2023-04-27T10:14:00.988Z,32.01
2023-04-27T10:15:00.986Z,32.04
2023-04-27T10:16:00.978Z,31.97
2023-04-27T10:17:01.002Z,32.16
2023-04-27T10:18:01.009Z,31.95
2023-04-27T10:19:00.963Z,31.65
2023-04-27T10:20:00.961Z,31.51
2023-04-27T10:21:01.045Z,31.53
2023-04-27T10:22:00.935Z,31.72
2023-04-27T10:23:00.996Z,31.74
2023-04-27T10:24:00.955Z,31.71
2023-04-27T10:25:00.914Z,31.55
2023-04-27T10:26:00.912Z,31.65
2023-04-27T10:27:00.925Z,31.88
2023-04-27T10:28:00.898Z,32.02
2023-04-27T10:29:00.917Z,32.37
2023-04-27T10:30:00.887Z,32.14
2023-04-27T10:31:00.966Z,31.32
2023-04-27T10:32:00.904Z,31.44
2023-04-27T10:33:00.958Z,31.70
2023-04-27T10:34:01.169Z,31.87
2023-04-27T10:35:00.864Z,32.06
2023-04-27T10:36:00.833Z,32.11
2023-04-27T10:37:00.864Z,32.53
2023-04-27T10:38:00.885Z,32.04
2023-04-27T10:39:00.858Z,32.14
2023-04-27T10:40:00.804Z,32.36
2023-04-27T10:41:00.870Z,32.79
2023-04-27T10:42:01.159Z,32.73
2023-04-27T10:43:00.818Z,32.60
2023-04-27T10:44:00.793Z,32.72
2023-04-27T10:45:00.770Z,32.64
2023-04-27T10:46:00.835Z,32.70
2023-04-27T10:47:00.804Z,32.74
2023-04-27T10:48:01.010Z,32.72
2023-04-27T10:49:00.841Z,32.69
2023-04-27T10:50:00.930Z,32.51
2023-04-27T10:51:00.967Z,32.46
2023-04-27T10:52:01.048Z,32.67
2023-04-27T10:53:01.160Z,32.90
2023-04-27T10:54:01.160Z,33.11
2023-04-27T10:55:01.198Z,33.07
2023-04-27T10:56:01.343Z,32.95
2023-04-27T10:57:01.385Z,33.07
2023-04-27T10:58:01.357Z,33.30
2023-04-27T10:59:01.453Z,33.01
2023-04-27T11:00:01.510Z,32.70
2023-04-27T11:01:01.566Z,32.67
2023-04-27T11:02:01.728Z,32.51
2023-04-27T11:03:01.740Z,32.57
2023-04-27T11:04:01.718Z,32.96
2023-04-27T11:05:01.824Z,32.62
2023-04-27T11:06:01.800Z,32.35
2023-04-27T11:07:02.183Z,32.38
2023-04-27T11:08:01.939Z,32.52
2023-04-27T11:09:01.980Z,34.07
2023-04-27T11:10:02.019Z,32.80
2023-04-27T11:11:02.053Z,32.83
2023-04-27T11:12:02.137Z,32.87
2023-04-27T11:13:02.180Z,32.53
2023-04-27T11:14:02.425Z,32.68
2023-04-27T11:15:02.640Z,32.62
2023-04-27T11:16:02.448Z,32.73
2023-04-27T11:17:02.389Z,32.83
2023-04-27T11:18:02.517Z,32.83
2023-04-27T11:19:02.477Z,32.45
2023-04-27T11:20:02.548Z,32.21
2023-04-27T11:21:02.549Z,32.09
2023-04-27T11:22:02.758Z,32.02
2023-04-27T11:23:02.676Z,32.03
2023-04-27T11:24:02.707Z,32.04
2023-04-27T11:25:03.151Z,32.00
2023-04-27T11:26:02.846Z,31.90
2023-04-27T11:27:03.165Z,31.99
2023-04-27T11:28:02.962Z,31.90
2023-04-27T11:29:03.014Z,31.84
2023-04-27T11:30:03.160Z,31.94
2023-04-27T11:31:03.108Z,31.99
2023-04-27T11:32:03.269Z,32.05
2023-04-27T11:33:03.183Z,32.07
2023-04-27T11:34:04.049Z,32.00
2023-04-27T11:35:03.223Z,32.09
2023-04-27T11:36:03.227Z,32.16
2023-04-27T11:37:17.492Z,32.08
2023-04-27T11:38:04.321Z,32.05
2023-04-27T11:39:03.285Z,32.03
2023-04-27T11:40:03.295Z,31.99
2023-04-27T11:41:03.285Z,32.02
2023-04-27T11:42:03.212Z,32.00
2023-04-27T11:43:03.198Z,32.10
2023-04-27T11:44:03.192Z,32.01
2023-04-27T11:45:03.204Z,32.13
2023-04-27T11:46:03.206Z,32.03
2023-04-27T11:47:03.403Z,32.03
2023-04-27T11:48:03.242Z,32.12
2023-04-27T11:49:03.160Z,32.01
2023-04-27T11:50:03.203Z,31.99
2023-04-27T11:51:03.154Z,31.99
2023-04-27T11:52:03.151Z,31.98
2023-04-27T11:53:03.161Z,32.01
2023-04-27T11:54:03.144Z,32.03
2023-04-27T11:55:03.190Z,32.05
2023-04-27T11:56:03.120Z,32.01
2023-04-27T11:57:03.111Z,32.03
2023-04-27T11:58:03.080Z,32.00
2023-04-27T11:59:03.102Z,31.97
2023-04-27T12:00:03.115Z,32.00
2023-04-27T12:01:03.121Z,31.97
2023-04-27T12:02:03.103Z,32.02
2023-04-27T12:03:03.267Z,32.02
2023-04-27T12:04:03.173Z,31.96
2023-04-27T12:05:03.311Z,31.99
2023-04-27T12:06:21.327Z,32.03
2023-04-27T12:07:04.098Z,32.02
2023-04-27T12:08:03.082Z,32.03
2023-04-27T12:09:03.076Z,32.00
2023-04-27T12:10:03.197Z,32.00
2023-04-27T12:11:03.060Z,31.92
2023-04-27T12:12:03.049Z,31.96
2023-04-27T12:13:03.041Z,32.02
2023-04-27T12:14:03.066Z,32.06
2023-04-27T12:15:03.041Z,32.03
2023-04-27T12:16:03.076Z,32.04
2023-04-27T12:17:03.084Z,32.04
2023-04-27T12:18:03.066Z,32.09
2023-04-27T12:19:03.004Z,32.05
2023-04-27T12:20:03.188Z,32.05
2023-04-27T12:21:03.821Z,32.10
2023-04-27T12:22:02.970Z,32.11
2023-04-27T12:23:02.959Z,32.07
2023-04-27T12:24:02.956Z,32.10
2023-04-27T12:25:03.083Z,32.17
2023-04-27T12:26:02.972Z,32.06
2023-04-27T12:27:02.958Z,32.18
2023-04-27T12:28:02.958Z,32.22
2023-04-27T12:29:02.927Z,32.19
2023-04-27T12:30:02.945Z,32.09
2023-04-27T12:31:02.955Z,32.20
2023-04-27T12:32:02.920Z,32.15
2023-04-27T12:33:02.958Z,32.14
2023-04-27T12:34:02.890Z,32.19
2023-04-27T12:35:02.910Z,32.22
2023-04-27T12:36:02.898Z,32.20
2023-04-27T12:37:02.865Z,32.21
2023-04-27T12:38:02.860Z,32.17
2023-04-27T12:39:02.894Z,32.16
2023-04-27T12:40:02.856Z,32.17
2023-04-27T12:41:02.854Z,32.21
2023-04-27T12:42:02.851Z,32.18
2023-04-27T12:43:02.871Z,32.15
2023-04-27T12:44:02.846Z,32.20
2023-04-27T12:45:02.882Z,32.27
2023-04-27T12:46:02.929Z,32.28
2023-04-27T12:47:02.933Z,32.19
2023-04-27T12:48:04.204Z,32.18
2023-04-27T12:49:02.899Z,32.24
2023-04-27T12:50:02.929Z,32.22
2023-04-27T12:51:02.942Z,32.28
2023-04-27T12:52:02.973Z,32.19
2023-04-27T12:53:02.965Z,32.25